Time;durP1;ratioP1;P1;durP2;ratioP2;P2;SDS_P1;SDS_P2;PMS_P1;PMS_P2;Temp;Humidity;BMP_temperature;BMP_pressure;BME280_temperature;BME280_humidity;BME280_pressure;Samples;Min_cycle;Max_cycle;Signal;HPM_P1;HPM_P2
2022/09/02 00:01:38;;;;;;;1.88;0.98;;;16.60;95.40;;;;;;5043359;28;20044;-74
2022/09/02 00:04:12;;;;;;;2.47;1.10;;;16.60;95.50;;;;;;5060717;28;20040;-75
2022/09/02 00:06:39;;;;;;;1.98;1.08;;;16.60;95.80;;;;;;5048811;28;20090;-75
2022/09/02 00:09:07;;;;;;;3.55;1.17;;;16.60;95.90;;;;;;5067833;28;20044;-74
2022/09/02 00:11:35;;;;;;;3.58;1.00;;;16.60;96.50;;;;;;5063827;28;20040;-73
2022/09/02 00:14:05;;;;;;;3.67;1.00;;;16.50;96.20;;;;;;5065990;28;20040;-74
2022/09/02 00:16:32;;;;;;;2.92;1.20;;;16.50;96.60;;;;;;5062178;28;20487;-74
2022/09/02 00:18:59;;;;;;;1.95;1.13;;;16.50;96.70;;;;;;5061085;28;21370;-75
2022/09/02 00:21:25;;;;;;;3.85;1.17;;;16.50;96.70;;;;;;5064885;28;20090;-73
2022/09/02 00:23:51;;;;;;;3.63;1.00;;;16.50;96.80;;;;;;5051951;28;20044;-75
2022/09/02 00:26:18;;;;;;;4.00;1.05;;;16.50;96.80;;;;;;5064946;28;20047;-74
2022/09/02 00:28:45;;;;;;;1.52;1.10;;;16.50;97.00;;;;;;5053044;28;20044;-74
2022/09/02 00:31:11;;;;;;;1.15;0.90;;;16.40;97.20;;;;;;5068305;28;20067;-75
2022/09/02 00:33:38;;;;;;;3.13;1.30;;;16.40;97.20;;;;;;5047222;28;20322;-74
2022/09/02 00:36:04;;;;;;;5.90;1.00;;;16.40;97.30;;;;;;5064046;28;20510;-74
2022/09/02 00:38:34;;;;;;;3.00;0.95;;;16.40;97.70;;;;;;5044487;28;20076;-74
2022/09/02 00:41:04;;;;;;;2.28;1.00;;;16.40;97.90;;;;;;5065239;28;20048;-74
2022/09/02 00:43:56;;;;;;;2.78;1.20;;;16.40;98.00;;;;;;5045677;28;20550;-74
2022/09/02 00:46:24;;;;;;;3.10;1.10;;;16.30;98.40;;;;;;5062265;28;20138;-75
2022/09/02 00:49:11;;;;;;;2.83;1.10;;;16.30;98.30;;;;;;5046569;28;20055;-75
2022/09/02 00:52:11;;;;;;;1.80;1.00;;;16.30;98.60;;;;;;5047283;28;20052;-74
2022/09/02 00:54:44;;;;;;;1.42;1.10;;;16.30;98.70;;;;;;5060579;28;20059;-74
2022/09/02 00:57:18;;;;;;;2.65;1.08;;;16.30;99.00;;;;;;5048902;28;20120;-74
2022/09/02 00:59:59;;;;;;;3.22;1.10;;;16.20;99.20;;;;;;5062956;28;20090;-74
2022/09/02 01:02:30;;;;;;;4.20;1.08;;;16.20;99.30;;;;;;5062007;28;20495;-74
2022/09/02 01:04:57;;;;;;;3.85;1.13;;;16.20;99.70;;;;;;5043613;28;20443;-74
2022/09/02 01:07:29;;;;;;;3.55;0.93;;;16.10;99.60;;;;;;5043377;28;20067;-73
2022/09/02 01:09:56;;;;;;;2.42;1.00;;;16.10;99.90;;;;;;5043679;28;20175;-74
2022/09/02 01:12:23;;;;;;;2.30;1.10;;;16.10;99.90;;;;;;5046521;28;20115;-73
2022/09/02 01:14:50;;;;;;;2.45;1.30;;;16.10;99.90;;;;;;5060559;28;20032;-74
2022/09/02 01:17:18;;;;;;;2.85;1.13;;;16.00;99.90;;;;;;5044635;28;20045;-74
2022/09/02 01:19:48;;;;;;;1.27;0.93;;;16.00;99.90;;;;;;5046330;28;20052;-74
2022/09/02 01:22:20;;;;;;;2.17;1.13;;;16.00;99.90;;;;;;5060026;28;20036;-74
2022/09/02 01:24:46;;;;;;;1.58;1.13;;;16.00;99.90;;;;;;5060219;28;21057;-74
2022/09/02 01:27:19;;;;;;;2.13;1.00;;;16.00;99.90;;;;;;5061397;28;20044;-74
2022/09/02 01:29:45;;;;;;;2.13;1.23;;;15.90;99.90;;;;;;5056338;28;20409;-74
2022/09/02 01:32:11;;;;;;;2.38;1.25;;;15.90;99.90;;;;;;5062618;28;20045;-74
2022/09/02 01:34:38;;;;;;;5.22;1.20;;;15.90;99.90;;;;;;5062278;28;20044;-75
2022/09/02 01:37:04;;;;;;;4.10;1.13;;;15.90;99.90;;;;;;5060773;28;20052;-74
2022/09/02 01:39:30;;;;;;;3.22;1.23;;;15.90;99.90;;;;;;5063157;28;20097;-74
2022/09/02 01:41:57;;;;;;;3.63;1.23;;;15.80;99.90;;;;;;5064966;28;20048;-73
2022/09/02 01:44:23;;;;;;;3.45;1.30;;;15.80;99.90;;;;;;5062689;28;20052;-73
2022/09/02 01:46:49;;;;;;;5.88;1.40;;;15.80;99.90;;;;;;5057310;28;20033;-74
2022/09/02 01:49:15;;;;;;;1.50;1.10;;;15.70;99.90;;;;;;5061900;28;20102;-74
2022/09/02 01:51:40;;;;;;;3.95;1.30;;;15.70;99.90;;;;;;5045561;28;20044;-74
2022/09/02 01:54:06;;;;;;;2.38;1.08;;;15.70;99.90;;;;;;5061085;28;20064;-73
2022/09/02 01:56:34;;;;;;;1.85;1.13;;;15.70;99.90;;;;;;5064432;28;20106;-74
2022/09/02 01:59:01;;;;;;;2.15;1.15;;;15.60;99.90;;;;;;5063025;28;20479;-75
2022/09/02 02:01:27;;;;;;;5.15;1.10;;;15.60;99.90;;;;;;5062796;28;20059;-74
2022/09/02 02:03:53;;;;;;;3.10;1.38;;;15.60;99.90;;;;;;5041206;28;20529;-74
2022/09/02 02:06:19;;;;;;;3.97;1.30;;;15.60;99.90;;;;;;5045004;28;20539;-74
2022/09/02 02:08:45;;;;;;;2.42;1.25;;;15.60;99.90;;;;;;5044149;28;20053;-74
2022/09/02 02:11:11;;;;;;;2.53;1.30;;;15.50;99.90;;;;;;5058077;28;20048;-74
2022/09/02 02:13:36;;;;;;;4.13;1.33;;;15.50;99.90;;;;;;5044519;28;20087;-74
2022/09/02 02:16:02;;;;;;;2.78;1.25;;;15.50;99.90;;;;;;5066671;28;20064;-74
2022/09/02 02:18:28;;;;;;;1.95;1.23;;;15.50;99.90;;;;;;5063584;28;20060;-74
2022/09/02 02:20:54;;;;;;;2.55;1.20;;;15.50;99.90;;;;;;5042970;28;20041;-74
2022/09/02 02:23:21;;;;;;;2.28;1.20;;;15.40;99.90;;;;;;5061871;28;20499;-74
2022/09/02 02:25:47;;;;;;;1.55;1.20;;;15.40;99.90;;;;;;5043802;28;20043;-74
2022/09/02 02:28:13;;;;;;;2.95;1.35;;;15.40;99.90;;;;;;5043982;28;20049;-75
2022/09/02 02:30:39;;;;;;;2.78;1.20;;;15.30;99.90;;;;;;5061783;28;20045;-74
2022/09/02 02:33:04;;;;;;;2.83;1.33;;;15.30;99.90;;;;;;5063767;28;20052;-74
2022/09/02 02:35:30;;;;;;;2.55;1.08;;;15.30;99.90;;;;;;5058403;28;20127;-74
2022/09/02 02:37:56;;;;;;;9.02;1.77;;;15.30;99.90;;;;;;5056735;28;20491;-74
2022/09/02 02:40:24;;;;;;;2.92;1.50;;;15.30;99.90;;;;;;5057205;28;20075;-74
2022/09/02 02:42:52;;;;;;;4.35;1.50;;;15.30;99.90;;;;;;5067195;28;20069;-74
2022/09/02 02:45:18;;;;;;;2.92;1.40;;;15.20;99.90;;;;;;5063824;28;20115;-74
2022/09/02 02:47:48;;;;;;;1.93;1.43;;;15.20;99.90;;;;;;5060896;28;20047;-74
2022/09/02 02:50:16;;;;;;;2.53;1.27;;;15.20;99.90;;;;;;5066668;28;20040;-73
2022/09/02 02:52:42;;;;;;;1.83;1.20;;;15.10;99.90;;;;;;5042516;28;20044;-74
2022/09/02 02:55:10;;;;;;;2.45;1.55;;;15.10;99.90;;;;;;5064016;28;20483;-74
2022/09/02 02:57:38;;;;;;;2.42;1.58;;;15.10;99.90;;;;;;5044982;28;20048;-74
2022/09/02 03:00:11;;;;;;;2.55;1.55;;;15.10;99.90;;;;;;5059439;28;20128;-74
2022/09/02 03:02:37;;;;;;;4.03;1.52;;;15.10;99.90;;;;;;5061014;28;20044;-73
2022/09/02 03:05:06;;;;;;;3.97;1.52;;;15.10;99.90;;;;;;5059990;28;20040;-73
2022/09/02 03:07:31;;;;;;;2.80;1.40;;;15.00;99.90;;;;;;5059906;28;20056;-74
2022/09/02 03:09:57;;;;;;;3.13;1.30;;;15.00;99.90;;;;;;5043665;28;20519;-73
2022/09/02 03:12:24;;;;;;;2.33;1.70;;;15.00;99.90;;;;;;5042332;28;20088;-74
2022/09/02 03:14:50;;;;;;;3.83;1.40;;;15.00;99.90;;;;;;5039336;28;20044;-75
2022/09/02 03:17:16;;;;;;;4.35;1.52;;;15.00;99.90;;;;;;5063109;28;20036;-74
2022/09/02 03:19:41;;;;;;;2.42;1.70;;;14.90;99.90;;;;;;5060892;28;20477;-74
2022/09/02 03:22:09;;;;;;;2.63;1.50;;;14.90;99.90;;;;;;5059248;28;20101;-74
2022/09/02 03:24:37;;;;;;;2.53;1.60;;;14.90;99.90;;;;;;5061866;28;20047;-74
2022/09/02 03:27:03;;;;;;;;;;;14.90;99.90;;;;;;5062995;28;20037;-74
2022/09/02 03:29:29;;;;;;;3.67;1.58;;;14.80;99.90;;;;;;5042074;28;19920;-74
2022/09/02 03:31:55;;;;;;;2.10;1.60;;;14.90;99.90;;;;;;5061915;28;20043;-75
2022/09/02 03:34:20;;;;;;;3.13;1.70;;;14.80;99.90;;;;;;5058272;28;20040;-74
2022/09/02 03:36:46;;;;;;;2.15;1.58;;;14.80;99.90;;;;;;5059000;28;20204;-74
2022/09/02 03:39:12;;;;;;;2.15;1.45;;;14.80;99.90;;;;;;5042623;28;20052;-74
2022/09/02 03:41:40;;;;;;;2.33;1.73;;;14.70;99.90;;;;;;5063801;28;20067;-74
2022/09/02 03:44:07;;;;;;;2.85;1.67;;;14.80;99.90;;;;;;5059322;28;20037;-73
2022/09/02 03:46:32;;;;;;;3.58;1.70;;;14.70;99.90;;;;;;5041807;28;20131;-73
2022/09/02 03:48:58;;;;;;;2.40;1.50;;;14.70;99.90;;;;;;5045322;28;20135;-74
2022/09/02 03:51:25;;;;;;;4.55;1.90;;;14.70;99.90;;;;;;5058642;28;20382;-74
2022/09/02 03:53:50;;;;;;;2.97;1.70;;;14.60;99.90;;;;;;5064716;28;20041;-75
2022/09/02 03:56:17;;;;;;;2.70;1.63;;;14.60;99.90;;;;;;5060380;28;20376;-73
2022/09/02 03:58:45;;;;;;;3.65;1.80;;;14.60;99.90;;;;;;5064607;28;21599;-73
2022/09/02 04:01:17;;;;;;;3.65;1.60;;;14.60;99.90;;;;;;5065049;28;20050;-72
2022/09/02 04:03:43;;;;;;;2.53;1.70;;;14.50;99.90;;;;;;5062963;28;20499;-74
2022/09/02 04:06:15;;;;;;;2.58;1.60;;;14.60;99.90;;;;;;5046472;28;20131;-74
2022/09/02 04:08:42;;;;;;;4.50;1.80;;;14.50;99.90;;;;;;5072865;28;20060;-74
2022/09/02 04:11:09;;;;;;;;;;;14.50;99.90;;;;;;5066241;28;20044;-74
2022/09/02 04:13:35;;;;;;;2.78;1.80;;;14.50;99.90;;;;;;5064945;28;19924;-74
2022/09/02 04:16:13;;;;;;;7.07;1.98;;;14.40;99.90;;;;;;5058530;28;20564;-74
2022/09/02 04:18:39;;;;;;;3.70;2.00;;;14.50;99.90;;;;;;5045636;28;20125;-74
2022/09/02 04:21:05;;;;;;;3.78;2.10;;;14.40;99.90;;;;;;5062817;28;20131;-74
2022/09/02 04:23:32;;;;;;;3.13;1.77;;;14.40;99.90;;;;;;5045924;28;20051;-74
2022/09/02 04:26:01;;;;;;;4.93;1.73;;;14.40;99.90;;;;;;5043977;28;20055;-74
2022/09/02 04:28:27;;;;;;;3.20;1.60;;;14.40;99.90;;;;;;5060971;28;20984;-74
2022/09/02 04:30:53;;;;;;;4.18;1.90;;;14.40;99.90;;;;;;5063375;28;20043;-74
2022/09/02 04:33:18;;;;;;;4.57;2.00;;;14.30;99.90;;;;;;5068139;28;20163;-74
2022/09/02 04:35:47;;;;;;;2.45;1.70;;;14.40;99.90;;;;;;5046554;28;20114;-72
2022/09/02 04:38:14;;;;;;;4.35;2.17;;;14.30;99.90;;;;;;5045381;28;20476;-72
2022/09/02 04:40:42;;;;;;;2.90;1.85;;;14.30;99.90;;;;;;5044460;28;20078;-73
2022/09/02 04:43:08;;;;;;;3.80;1.90;;;14.30;99.90;;;;;;5061666;28;20049;-74
2022/09/02 04:45:34;;;;;;;3.20;1.95;;;14.30;99.90;;;;;;5060167;28;20032;-74
2022/09/02 04:48:00;;;;;;;2.25;1.95;;;14.30;99.90;;;;;;5049722;28;20499;-75
2022/09/02 04:50:26;;;;;;;2.97;1.80;;;14.30;99.90;;;;;;5064457;28;20112;-74
2022/09/02 04:52:51;;;;;;;3.53;1.90;;;14.30;99.90;;;;;;5047663;28;20104;-74
2022/09/02 04:55:17;;;;;;;3.45;2.30;;;14.20;99.90;;;;;;5046241;28;20078;-74
2022/09/02 04:57:42;;;;;;;3.40;2.10;;;14.20;99.90;;;;;;5064942;28;20043;-74
2022/09/02 05:00:09;;;;;;;2.22;1.90;;;14.30;99.90;;;;;;5064007;28;20123;-74
2022/09/02 05:02:34;;;;;;;2.97;2.00;;;14.30;99.90;;;;;;5068638;28;20041;-72
2022/09/02 05:05:00;;;;;;;4.03;2.25;;;14.30;99.90;;;;;;5045564;28;20048;-74
2022/09/02 05:07:26;;;;;;;5.32;2.20;;;14.30;99.90;;;;;;5045292;28;20459;-74
2022/09/02 05:09:56;;;;;;;5.28;1.95;;;14.30;99.90;;;;;;5042545;28;20037;-74
2022/09/02 05:12:26;;;;;;;4.25;2.00;;;14.30;99.90;;;;;;5067355;28;20055;-74
2022/09/02 05:14:52;;;;;;;3.63;1.95;;;14.30;99.90;;;;;;5070640;28;20048;-74
2022/09/02 05:17:17;;;;;;;4.55;1.98;;;14.20;99.90;;;;;;5078680;28;20784;-74
2022/09/02 05:19:46;;;;;;;3.25;1.90;;;14.30;99.90;;;;;;5068264;28;20044;-73
2022/09/02 05:22:12;;;;;;;3.28;1.90;;;14.30;99.90;;;;;;5052393;28;20094;-73
2022/09/02 05:24:37;;;;;;;4.03;2.33;;;14.30;99.90;;;;;;5071820;28;20048;-74
2022/09/02 05:27:03;;;;;;;2.85;2.08;;;14.40;99.90;;;;;;5058683;28;20052;-74
2022/09/02 05:29:28;;;;;;;3.03;1.88;;;14.40;99.90;;;;;;5061957;28;20040;-73
2022/09/02 05:31:54;;;;;;;7.22;2.30;;;14.40;99.90;;;;;;5062673;28;20040;-74
2022/09/02 05:34:21;;;;;;;4.40;2.10;;;14.40;99.90;;;;;;5064236;28;20048;-74
2022/09/02 05:36:46;;;;;;;2.77;2.07;;;14.40;99.90;;;;;;5058373;28;20049;-73
2022/09/02 05:39:12;;;;;;;4.18;2.00;;;14.40;99.90;;;;;;5057583;28;20299;-73
2022/09/02 05:41:39;;;;;;;3.83;2.40;;;14.50;99.90;;;;;;5061342;28;20044;-74
2022/09/02 05:44:05;;;;;;;4.03;2.05;;;14.50;99.90;;;;;;5060979;28;20079;-73
2022/09/02 05:46:31;;;;;;;2.17;1.75;;;14.50;99.90;;;;;;5063292;28;20045;-74
2022/09/02 05:49:07;;;;;;;4.10;2.22;;;14.50;99.90;;;;;;5063833;28;20059;-75
2022/09/02 05:51:40;;;;;;;2.72;2.10;;;14.60;99.90;;;;;;5064551;28;20048;-73
2022/09/02 05:54:12;;;;;;;4.30;2.30;;;14.70;99.90;;;;;;5041492;28;20045;-70
2022/09/02 05:56:40;;;;;;;3.60;2.10;;;14.70;99.90;;;;;;5041533;28;20048;-71
2022/09/02 05:59:07;;;;;;;5.10;2.42;;;14.70;99.90;;;;;;5068253;28;20036;-72
2022/09/02 06:01:34;;;;;;;6.17;2.50;;;14.70;99.90;;;;;;5048024;28;20036;-71
2022/09/02 06:04:05;;;;;;;4.70;1.95;;;14.80;99.90;;;;;;5066033;28;20054;-71
2022/09/02 06:06:32;;;;;;;7.10;2.50;;;14.90;99.90;;;;;;5061027;28;20134;-71
2022/09/02 06:09:04;;;;;;;6.43;2.15;;;14.90;99.90;;;;;;5064545;28;20143;-72
2022/09/02 06:11:38;;;;;;;4.72;2.33;;;14.90;99.90;;;;;;5067251;28;20082;-71
2022/09/02 06:14:06;;;;;;;4.32;2.20;;;15.00;99.90;;;;;;5058719;28;20523;-74
2022/09/02 06:16:32;;;;;;;5.55;2.47;;;15.00;99.90;;;;;;5067004;28;20139;-72
2022/09/02 06:18:58;;;;;;;3.63;2.40;;;15.10;99.90;;;;;;5067014;28;20048;-73
2022/09/02 06:21:27;;;;;;;4.55;2.45;;;15.10;99.90;;;;;;5066768;28;20121;-73
2022/09/02 06:23:53;;;;;;;4.45;2.40;;;15.10;99.90;;;;;;5064562;28;20048;-73
2022/09/02 06:26:19;;;;;;;4.05;2.50;;;15.20;99.90;;;;;;5061190;28;20079;-74
2022/09/02 06:28:48;;;;;;;4.97;2.42;;;15.20;99.90;;;;;;5039000;28;20094;-73
2022/09/02 06:31:20;;;;;;;3.78;2.22;;;15.20;99.90;;;;;;5058715;28;20068;-73
2022/09/02 06:33:56;;;;;;;3.75;2.33;;;15.30;99.90;;;;;;5058284;28;20487;-73
2022/09/02 06:36:27;;;;;;;2.92;2.17;;;15.30;99.90;;;;;;5054638;28;20051;-73
2022/09/02 06:38:55;;;;;;;4.35;2.00;;;15.40;99.90;;;;;;5059721;28;20098;-72
2022/09/02 06:41:32;;;;;;;3.00;2.13;;;15.40;99.90;;;;;;5043525;28;20041;-74
2022/09/02 06:44:04;;;;;;;3.08;1.90;;;15.50;99.90;;;;;;5046040;28;20794;-74
2022/09/02 06:46:35;;;;;;;3.20;2.25;;;15.60;99.90;;;;;;5066649;28;20040;-74
2022/09/02 06:49:03;;;;;;;5.95;2.50;;;15.70;99.90;;;;;;5064934;28;20399;-73
2022/09/02 06:51:41;;;;;;;3.67;2.45;;;15.80;99.90;;;;;;5064164;28;20044;-74
2022/09/02 06:54:12;;;;;;;4.40;2.53;;;15.80;99.90;;;;;;5046016;28;20076;-73
2022/09/02 06:56:42;;;;;;;4.60;2.20;;;15.90;99.90;;;;;;5065192;28;20052;-73
2022/09/02 06:59:09;;;;;;;5.13;2.40;;;15.90;99.90;;;;;;5046971;28;20135;-74
2022/09/02 07:01:35;;;;;;;3.90;2.40;;;16.00;99.90;;;;;;5044807;28;20049;-75
2022/09/02 07:06:51;;;;;;;2.53;2.20;;;16.10;99.90;;;;;;5063085;28;20056;-73
2022/09/02 07:09:22;;;;;;;5.72;2.20;;;16.20;99.90;;;;;;5057523;28;20061;-83
2022/09/02 07:11:49;;;;;;;5.30;2.70;;;16.30;99.90;;;;;;5066934;28;20033;-79
2022/09/02 07:14:19;;;;;;;6.40;2.22;;;16.40;99.90;;;;;;5055918;28;20044;-79
2022/09/02 07:16:49;;;;;;;2.25;1.90;;;16.50;99.90;;;;;;5047557;28;20052;-81
2022/09/02 07:19:17;;;;;;;5.88;2.47;;;16.50;99.90;;;;;;5068206;28;20045;-79
2022/09/02 07:21:42;;;;;;;5.72;2.10;;;16.50;99.90;;;;;;5051588;28;20044;-79
2022/09/02 07:24:10;;;;;;;8.95;2.38;;;16.70;99.90;;;;;;5068825;28;20035;-80
2022/09/02 07:26:36;;;;;;;5.15;2.00;;;16.70;99.90;;;;;;5068133;28;20041;-80
2022/09/02 07:29:03;;;;;;;5.57;2.33;;;16.80;99.90;;;;;;5067515;28;20051;-79
2022/09/02 07:31:29;;;;;;;6.00;2.28;;;16.90;99.90;;;;;;5067135;28;20127;-78
2022/09/02 07:33:58;;;;;;;3.38;2.05;;;16.90;99.90;;;;;;5060696;28;20127;-80
2022/09/02 07:36:25;;;;;;;4.70;2.25;;;17.00;99.90;;;;;;5063518;28;20487;-79
2022/09/02 07:38:52;;;;;;;6.88;2.13;;;17.10;99.90;;;;;;5061931;28;20097;-77
2022/09/02 07:41:19;;;;;;;3.85;1.90;;;17.20;99.90;;;;;;5062243;28;20548;-79
2022/09/02 07:43:45;;;;;;;4.85;2.13;;;17.30;99.90;;;;;;5067570;28;20043;-78
2022/09/02 07:46:11;;;;;;;3.08;2.00;;;17.30;99.90;;;;;;5050408;28;20054;-78
2022/09/02 07:48:37;;;;;;;6.85;1.92;;;17.40;99.90;;;;;;5061879;28;20076;-81
2022/09/02 07:51:04;;;;;;;4.82;1.98;;;17.50;99.90;;;;;;5060402;28;20072;-81
2022/09/02 07:53:31;;;;;;;3.72;1.90;;;17.60;99.90;;;;;;5060914;28;20044;-79
2022/09/02 07:55:57;;;;;;;9.35;2.25;;;17.70;99.90;;;;;;5063473;28;20190;-81
2022/09/02 07:58:25;;;;;;;3.22;1.50;;;17.80;99.90;;;;;;5063997;28;20090;-80
2022/09/02 08:00:54;;;;;;;3.67;2.17;;;17.90;99.90;;;;;;5063167;28;20505;-80
2022/09/02 08:03:21;;;;;;;3.78;1.73;;;18.00;99.90;;;;;;5065317;28;20489;-81
2022/09/02 08:05:47;;;;;;;4.22;2.00;;;18.00;99.90;;;;;;5045387;28;20048;-79
2022/09/02 08:08:14;;;;;;;4.22;1.70;;;18.20;99.90;;;;;;5063862;28;20103;-80
2022/09/02 08:10:41;;;;;;;3.85;1.80;;;18.30;99.90;;;;;;5067771;28;20139;-79
2022/09/02 08:13:07;;;;;;;2.23;1.60;;;18.30;99.90;;;;;;5060712;28;20044;-79
2022/09/02 08:15:35;;;;;;;3.90;1.90;;;18.40;99.90;;;;;;5060307;28;20765;-80
2022/09/02 08:18:01;;;;;;;4.88;1.90;;;18.50;99.90;;;;;;5063499;28;20051;-81
2022/09/02 08:20:29;;;;;;;3.13;1.90;;;18.60;99.90;;;;;;5067334;28;20468;-81
2022/09/02 08:22:55;;;;;;;4.07;1.60;;;18.60;99.90;;;;;;5049732;28;20051;-81
2022/09/02 08:25:21;;;;;;;3.45;1.83;;;18.70;99.90;;;;;;5063828;28;20452;-82
2022/09/02 08:27:46;;;;;;;5.25;1.95;;;18.80;99.90;;;;;;5048765;28;20047;-80
2022/09/02 08:30:12;;;;;;;6.93;1.70;;;18.90;99.90;;;;;;5063306;28;20128;-81
2022/09/02 08:32:39;;;;;;;6.30;1.83;;;19.00;99.90;;;;;;5068731;28;20048;-83
2022/09/02 08:35:06;;;;;;;2.45;1.83;;;19.10;99.90;;;;;;5033872;28;20044;-84
2022/09/02 08:37:33;;;;;;;3.88;1.80;;;19.20;99.90;;;;;;5068497;28;20045;-83
2022/09/02 08:40:03;;;;;;;;;;;19.20;99.90;;;;;;5063659;28;20044;-82
2022/09/02 08:42:34;;;;;;;3.33;1.70;;;19.20;99.90;;;;;;5065563;28;19920;-81
2022/09/02 08:45:08;;;;;;;6.82;1.77;;;19.30;99.70;;;;;;5070182;28;20039;-82
2022/09/02 08:47:36;;;;;;;3.25;1.70;;;19.40;99.10;;;;;;5055299;28;20426;-83
2022/09/02 08:50:14;;;;;;;3.10;1.58;;;19.50;99.40;;;;;;5063690;28;20057;-83
2022/09/02 08:52:58;;;;;;;5.20;1.55;;;19.50;99.10;;;;;;5052383;28;20049;-83
2022/09/02 08:55:32;;;;;;;4.05;1.63;;;19.60;99.90;;;;;;5062501;28;20045;-82
2022/09/02 08:58:00;;;;;;;5.75;1.80;;;19.70;97.90;;;;;;5068408;28;20116;-84
2022/09/02 09:00:28;;;;;;;4.40;1.58;;;19.70;97.40;;;;;;5053343;28;20041;-84
2022/09/02 09:03:11;;;;;;;3.80;1.48;;;19.80;98.30;;;;;;5072926;28;20106;-82
2022/09/02 09:06:09;;;;;;;3.67;1.80;;;19.80;97.50;;;;;;5072230;28;20456;-83
2022/09/02 09:08:58;;;;;;;3.45;1.65;;;19.90;96.30;;;;;;5064324;28;20064;-78
2022/09/02 09:11:23;;;;;;;3.45;1.52;;;20.00;96.40;;;;;;5063724;28;20048;-77
2022/09/02 09:14:04;;;;;;;4.55;1.40;;;20.10;95.80;;;;;;5053388;28;20085;-78
2022/09/02 09:16:53;;;;;;;3.97;1.65;;;20.20;95.30;;;;;;5049912;28;20049;-77
2022/09/02 09:19:46;;;;;;;5.75;1.70;;;20.30;93.90;;;;;;5050885;28;20064;-77
2022/09/02 09:22:16;;;;;;;4.32;1.77;;;20.30;95.70;;;;;;5071260;28;20079;-78
2022/09/02 09:24:45;;;;;;;2.80;1.52;;;20.40;92.80;;;;;;5054936;28;20098;-81
2022/09/02 09:27:21;;;;;;;4.03;1.70;;;20.50;91.00;;;;;;5046038;28;20164;-79
2022/09/02 09:29:51;;;;;;;5.97;1.77;;;20.50;91.00;;;;;;5067924;28;20078;-82
2022/09/02 09:32:33;;;;;;;4.18;1.60;;;20.60;93.10;;;;;;5057766;28;20044;-79
2022/09/02 09:35:01;;;;;;;4.90;1.60;;;20.70;90.50;;;;;;5070125;28;20048;-80
2022/09/02 09:37:33;;;;;;;3.08;1.48;;;20.70;87.40;;;;;;5072593;28;20048;-79
2022/09/02 09:40:00;;;;;;;12.48;2.13;;;20.80;86.60;;;;;;5073711;28;20048;-76
2022/09/02 09:42:35;;;;;;;7.35;1.60;;;20.90;87.30;;;;;;5071884;28;20040;-81
2022/09/02 09:45:20;;;;;;;4.47;1.40;;;21.00;84.10;;;;;;5063917;28;20681;-80
2022/09/02 09:48:14;;;;;;;3.10;1.50;;;21.00;84.40;;;;;;5051193;28;20456;-79
2022/09/02 09:50:40;;;;;;;4.88;1.60;;;21.10;85.40;;;;;;5057999;28;20132;-78
2022/09/02 09:53:27;;;;;;;4.15;1.33;;;21.20;82.60;;;;;;5068183;28;20044;-78
2022/09/02 09:56:04;;;;;;;4.05;1.50;;;21.20;81.10;;;;;;5072663;28;20496;-79
2022/09/02 09:58:45;;;;;;;6.63;1.60;;;21.30;79.90;;;;;;5070142;28;20506;-77
2022/09/02 10:01:20;;;;;;;3.65;1.30;;;21.40;75.10;;;;;;5073254;28;20793;-78
2022/09/02 10:03:53;;;;;;;3.55;1.40;;;21.50;74.70;;;;;;5072765;28;20044;-76
2022/09/02 10:06:29;;;;;;;2.40;1.25;;;21.60;73.00;;;;;;5071405;28;20496;-78
2022/09/02 10:09:00;;;;;;;2.92;1.10;;;21.70;70.00;;;;;;5069594;28;20381;-79
2022/09/02 10:11:34;;;;;;;3.83;1.23;;;21.80;68.90;;;;;;5070271;28;20087;-79
2022/09/02 10:14:02;;;;;;;2.08;1.10;;;21.90;67.80;;;;;;5071489;28;20045;-80
2022/09/02 10:16:50;;;;;;;4.20;1.52;;;21.90;66.20;;;;;;5071399;28;20037;-77
2022/09/02 10:19:44;;;;;;;3.78;1.38;;;22.00;64.50;;;;;;5049222;28;20399;-80
2022/09/02 10:22:39;;;;;;;4.25;1.00;;;22.10;59.70;;;;;;5061669;28;20547;-79
2022/09/02 10:25:28;;;;;;;6.97;1.33;;;22.10;62.40;;;;;;5048391;28;20066;-78
2022/09/02 10:28:03;;;;;;;7.05;1.42;;;22.20;61.60;;;;;;5066234;28;20044;-80
2022/09/02 10:30:43;;;;;;;2.00;1.05;;;22.30;59.40;;;;;;5067340;28;20071;-78
2022/09/02 10:33:19;;;;;;;6.28;1.17;;;22.30;57.80;;;;;;5060191;28;20052;-77
2022/09/02 10:35:58;;;;;;;3.35;1.17;;;22.30;57.20;;;;;;5057958;28;20048;-77
2022/09/02 10:38:29;;;;;;;3.47;1.30;;;22.40;57.20;;;;;;5051180;28;20060;-78
2022/09/02 10:41:25;;;;;;;4.72;1.10;;;22.40;57.50;;;;;;5068858;28;20051;-79
2022/09/02 10:44:24;;;;;;;4.07;1.10;;;22.50;57.70;;;;;;5053139;28;20587;-78
2022/09/02 10:47:21;;;;;;;2.25;1.10;;;22.50;57.60;;;;;;5066433;28;20496;-82
2022/09/02 10:49:52;;;;;;;8.35;1.63;;;22.60;58.10;;;;;;5070625;28;20056;-82
2022/09/02 10:52:52;;;;;;;8.60;1.40;;;22.70;59.20;;;;;;5067074;28;20067;-79
2022/09/02 10:55:57;;;;;;;3.55;1.13;;;22.80;59.20;;;;;;5051077;28;20096;-79
2022/09/02 10:58:47;;;;;;;4.78;1.55;;;22.90;57.50;;;;;;5049601;28;20052;-82
2022/09/02 11:01:32;;;;;;;5.57;1.30;;;22.90;56.60;;;;;;5051181;28;20091;-81
2022/09/02 11:04:15;;;;;;;4.60;1.30;;;22.90;58.30;;;;;;5050714;28;20040;-80
2022/09/02 11:06:45;;;;;;;4.78;1.30;;;23.00;57.80;;;;;;5067620;28;20517;-80
2022/09/02 11:09:25;;;;;;;3.15;1.50;;;23.10;56.70;;;;;;5068184;28;20067;-81
2022/09/02 11:12:08;;;;;;;5.35;1.15;;;23.10;58.20;;;;;;5051363;28;20055;-81
2022/09/02 11:14:54;;;;;;;4.00;1.40;;;23.20;55.50;;;;;;5064544;28;20105;-83
2022/09/02 11:17:39;;;;;;;3.50;1.40;;;23.30;54.10;;;;;;5065993;28;20483;-79
2022/09/02 11:20:58;;;;;;;3.65;1.35;;;23.30;54.30;;;;;;5055810;28;20036;-82
2022/09/02 11:23:48;;;;;;;3.95;1.40;;;23.40;53.30;;;;;;5056707;28;20642;-83
2022/09/02 11:26:26;;;;;;;2.85;1.30;;;23.40;52.90;;;;;;5065086;28;20044;-83
2022/09/02 11:29:12;;;;;;;3.47;1.17;;;23.50;53.70;;;;;;5048750;28;20044;-78
2022/09/02 11:31:56;;;;;;;2.30;1.10;;;23.60;53.30;;;;;;5044046;28;20059;-78
2022/09/02 11:34:34;;;;;;;3.88;1.33;;;23.70;53.60;;;;;;5067354;28;20040;-78
2022/09/02 11:37:10;;;;;;;2.58;1.27;;;23.70;53.70;;;;;;5044464;28;20121;-79
2022/09/02 11:39:51;;;;;;;3.58;1.20;;;23.80;53.10;;;;;;5061292;28;20056;-86
2022/09/02 11:42:33;;;;;;;2.40;1.20;;;23.90;52.40;;;;;;5056113;28;20040;-77
2022/09/02 11:45:17;;;;;;;3.28;1.30;;;24.00;52.50;;;;;;5059561;28;20076;-78
2022/09/02 11:47:55;;;;;;;4.10;1.10;;;24.10;52.00;;;;;;5066817;28;20040;-81
2022/09/02 11:50:30;;;;;;;2.75;1.30;;;24.20;51.00;;;;;;5051474;28;20095;-78
2022/09/02 11:53:17;;;;;;;3.15;1.40;;;24.20;50.30;;;;;;5067859;28;20047;-79
2022/09/02 11:55:47;;;;;;;;;;;24.20;49.30;;;;;;5046288;28;20446;-79
2022/09/02 11:58:29;;;;;;;4.50;1.30;;;24.20;50.00;;;;;;5064476;28;19931;-81
2022/09/02 12:00:57;;;;;;;3.13;1.20;;;24.30;50.30;;;;;;5069479;28;20044;-81
2022/09/02 12:03:28;;;;;;;4.88;1.23;;;24.30;50.00;;;;;;5068343;28;20182;-75
2022/09/02 12:06:12;;;;;;;3.53;1.40;;;24.40;49.70;;;;;;5064910;28;20067;-76
2022/09/02 12:08:42;;;;;;;2.17;1.30;;;24.40;50.20;;;;;;5064780;28;20123;-75
2022/09/02 12:11:28;;;;;;;4.75;1.50;;;24.40;49.40;;;;;;5046564;28;20056;-77
2022/09/02 12:13:54;;;;;;;3.10;1.35;;;24.50;49.00;;;;;;5065008;28;20137;-76
2022/09/02 12:16:20;;;;;;;1.92;1.30;;;24.50;49.50;;;;;;5046986;28;20543;-77
2022/09/02 12:19:09;;;;;;;3.80;1.40;;;24.60;49.90;;;;;;5067332;28;20066;-76
2022/09/02 12:21:55;;;;;;;3.78;1.40;;;24.60;49.20;;;;;;5053370;28;20079;-77
2022/09/02 12:24:23;;;;;;;3.05;1.50;;;24.60;48.80;;;;;;5070370;28;20060;-77
2022/09/02 12:26:52;;;;;;;3.30;1.50;;;24.70;48.60;;;;;;5071247;28;20101;-77
2022/09/02 12:29:18;;;;;;;2.78;1.30;;;24.70;48.50;;;;;;5041279;28;21017;-75
2022/09/02 12:31:49;;;;;;;2.90;1.50;;;24.80;48.50;;;;;;5053889;28;20192;-77
2022/09/02 12:34:23;;;;;;;3.35;1.33;;;24.90;48.10;;;;;;5051474;28;20082;-76
2022/09/02 12:36:50;;;;;;;3.72;1.50;;;24.90;47.50;;;;;;5070573;28;20040;-76
2022/09/02 12:39:22;;;;;;;5.32;1.70;;;25.00;47.20;;;;;;5071453;28;20040;-77
2022/09/02 12:41:56;;;;;;;3.50;1.42;;;25.00;47.20;;;;;;5070212;28;20453;-78
2022/09/02 12:44:29;;;;;;;4.40;1.70;;;25.10;47.50;;;;;;5069014;28;20078;-78
2022/09/02 12:47:05;;;;;;;4.32;1.55;;;25.10;47.80;;;;;;5051139;28;20051;-78
2022/09/02 12:49:34;;;;;;;;;;;25.20;47.00;;;;;;5050796;28;20106;-77
2022/09/02 12:52:05;;;;;;;5.78;1.60;;;25.20;47.70;;;;;;5070077;28;19928;-79
2022/09/02 12:54:50;;;;;;;2.92;1.30;;;25.20;47.30;;;;;;5066673;28;20052;-75
2022/09/02 12:57:17;;;;;;;2.13;1.30;;;25.30;46.40;;;;;;5071163;28;20479;-77
2022/09/02 12:59:43;;;;;;;;;;;25.30;47.20;;;;;;5046935;28;20045;-76
2022/09/02 13:02:36;;;;;;;5.30;1.42;;;25.30;46.60;;;;;;5071269;28;19927;-75
2022/09/02 13:05:32;;;;;;;2.17;1.50;;;25.30;46.60;;;;;;5063085;28;20053;-78
2022/09/02 13:08:29;;;;;;;3.80;1.55;;;25.40;46.60;;;;;;5045055;28;20118;-78
2022/09/02 13:11:13;;;;;;;4.32;1.50;;;25.40;46.20;;;;;;5063188;28;20048;-79
2022/09/02 13:13:42;;;;;;;4.07;1.40;;;25.40;44.80;;;;;;5061313;28;20106;-76